sensor_id;sensor_type;location;lat;lon;timestamp;P1;durP1;ratioP1;P2;durP2;ratioP2
5195;SDS011;2617;51.006;12.436;2023-09-18T00:04:52;13.02;;;4.47;;
5195;SDS011;2617;51.006;12.436;2023-09-18T00:09:54;4.63;;;3.90;;
5195;SDS011;2617;51.006;12.436;2023-09-18T00:14:57;4.97;;;4.43;;
5195;SDS011;2617;51.006;12.436;2023-09-18T00:20:00;4.63;;;4.10;;
5195;SDS011;2617;51.006;12.436;2023-09-18T00:25:03;4.85;;;4.45;;
5195;SDS011;2617;51.006;12.436;2023-09-18T00:30:06;6.90;;;4.00;;
5195;SDS011;2617;51.006;12.436;2023-09-18T00:35:09;11.23;;;4.50;;
5195;SDS011;2617;51.006;12.436;2023-09-18T00:40:11;4.57;;;4.17;;
5195;SDS011;2617;51.006;12.436;2023-09-18T00:45:15;4.60;;;4.20;;
5195;SDS011;2617;51.006;12.436;2023-09-18T00:50:18;5.50;;;4.57;;
5195;SDS011;2617;51.006;12.436;2023-09-18T00:55:20;6.53;;;4.97;;
5195;SDS011;2617;51.006;12.436;2023-09-18T01:00:23;4.47;;;4.07;;
5195;SDS011;2617;51.006;12.436;2023-09-18T01:05:26;5.13;;;4.20;;
5195;SDS011;2617;51.006;12.436;2023-09-18T01:10:29;5.63;;;4.80;;
5195;SDS011;2617;51.006;12.436;2023-09-18T01:15:33;14.77;;;5.33;;
5195;SDS011;2617;51.006;12.436;2023-09-18T01:20:35;4.97;;;4.57;;
5195;SDS011;2617;51.006;12.436;2023-09-18T01:25:37;7.27;;;5.13;;
5195;SDS011;2617;51.006;12.436;2023-09-18T01:30:40;8.95;;;4.18;;
5195;SDS011;2617;51.006;12.436;2023-09-18T01:35:42;4.70;;;4.30;;
5195;SDS011;2617;51.006;12.436;2023-09-18T01:40:45;8.40;;;4.90;;
5195;SDS011;2617;51.006;12.436;2023-09-18T01:45:48;5.22;;;4.72;;
5195;SDS011;2617;51.006;12.436;2023-09-18T01:50:51;6.00;;;4.33;;
5195;SDS011;2617;51.006;12.436;2023-09-18T01:55:55;5.63;;;4.30;;
5195;SDS011;2617;51.006;12.436;2023-09-18T02:01:00;7.87;;;4.97;;
5195;SDS011;2617;51.006;12.436;2023-09-18T02:06:00;7.80;;;5.37;;
5195;SDS011;2617;51.006;12.436;2023-09-18T02:11:02;5.03;;;4.57;;
5195;SDS011;2617;51.006;12.436;2023-09-18T02:16:05;5.12;;;4.72;;
5195;SDS011;2617;51.006;12.436;2023-09-18T02:21:08;9.07;;;5.00;;
5195;SDS011;2617;51.006;12.436;2023-09-18T02:26:10;4.17;;;3.80;;
5195;SDS011;2617;51.006;12.436;2023-09-18T02:31:13;5.60;;;4.40;;
5195;SDS011;2617;51.006;12.436;2023-09-18T02:36:15;8.90;;;4.97;;
5195;SDS011;2617;51.006;12.436;2023-09-18T02:41:19;4.47;;;4.17;;
5195;SDS011;2617;51.006;12.436;2023-09-18T02:46:21;5.73;;;4.30;;
5195;SDS011;2617;51.006;12.436;2023-09-18T02:51:23;6.75;;;4.45;;
5195;SDS011;2617;51.006;12.436;2023-09-18T02:56:26;5.97;;;4.20;;
5195;SDS011;2617;51.006;12.436;2023-09-18T03:01:29;4.20;;;3.80;;
5195;SDS011;2617;51.006;12.436;2023-09-18T03:06:31;5.87;;;4.70;;
5195;SDS011;2617;51.006;12.436;2023-09-18T03:11:34;6.18;;;4.62;;
5195;SDS011;2617;51.006;12.436;2023-09-18T03:16:36;4.90;;;4.50;;
5195;SDS011;2617;51.006;12.436;2023-09-18T03:21:38;4.87;;;4.30;;
5195;SDS011;2617;51.006;12.436;2023-09-18T03:26:41;5.03;;;4.53;;
5195;SDS011;2617;51.006;12.436;2023-09-18T03:31:43;5.10;;;4.50;;
5195;SDS011;2617;51.006;12.436;2023-09-18T03:36:46;5.53;;;5.03;;
5195;SDS011;2617;51.006;12.436;2023-09-18T03:41:49;8.23;;;5.60;;
5195;SDS011;2617;51.006;12.436;2023-09-18T03:46:52;5.27;;;4.87;;
5195;SDS011;2617;51.006;12.436;2023-09-18T03:51:54;5.55;;;4.87;;
5195;SDS011;2617;51.006;12.436;2023-09-18T03:56:57;4.60;;;4.20;;
5195;SDS011;2617;51.006;12.436;2023-09-18T04:02:00;5.50;;;5.00;;
5195;SDS011;2617;51.006;12.436;2023-09-18T04:07:05;5.62;;;4.40;;
5195;SDS011;2617;51.006;12.436;2023-09-18T04:12:08;5.13;;;4.60;;
5195;SDS011;2617;51.006;12.436;2023-09-18T04:17:10;5.57;;;5.00;;
5195;SDS011;2617;51.006;12.436;2023-09-18T04:22:13;6.63;;;4.93;;
5195;SDS011;2617;51.006;12.436;2023-09-18T04:27:15;4.60;;;4.20;;
5195;SDS011;2617;51.006;12.436;2023-09-18T04:32:18;5.47;;;4.97;;
5195;SDS011;2617;51.006;12.436;2023-09-18T04:37:21;5.22;;;4.72;;
5195;SDS011;2617;51.006;12.436;2023-09-18T04:42:23;5.30;;;4.80;;
5195;SDS011;2617;51.006;12.436;2023-09-18T04:47:25;7.03;;;4.50;;
5195;SDS011;2617;51.006;12.436;2023-09-18T04:52:29;6.62;;;5.18;;
5195;SDS011;2617;51.006;12.436;2023-09-18T04:57:31;5.60;;;5.00;;
5195;SDS011;2617;51.006;12.436;2023-09-18T05:02:34;4.70;;;4.27;;
5195;SDS011;2617;51.006;12.436;2023-09-18T05:07:37;6.20;;;4.87;;
5195;SDS011;2617;51.006;12.436;2023-09-18T05:12:39;4.53;;;4.20;;
5195;SDS011;2617;51.006;12.436;2023-09-18T05:17:43;5.13;;;4.63;;
5195;SDS011;2617;51.006;12.436;2023-09-18T05:22:45;5.87;;;5.20;;
5195;SDS011;2617;51.006;12.436;2023-09-18T05:27:49;5.00;;;4.50;;
5195;SDS011;2617;51.006;12.436;2023-09-18T05:32:51;6.43;;;4.87;;
5195;SDS011;2617;51.006;12.436;2023-09-18T05:37:54;5.40;;;4.37;;
5195;SDS011;2617;51.006;12.436;2023-09-18T05:42:57;6.43;;;5.30;;
5195;SDS011;2617;51.006;12.436;2023-09-18T05:47:59;5.20;;;4.70;;
5195;SDS011;2617;51.006;12.436;2023-09-18T05:53:05;8.50;;;5.00;;
5195;SDS011;2617;51.006;12.436;2023-09-18T05:58:08;9.55;;;5.47;;
5195;SDS011;2617;51.006;12.436;2023-09-18T06:03:11;8.47;;;5.00;;
5195;SDS011;2617;51.006;12.436;2023-09-18T06:08:13;6.33;;;5.20;;
5195;SDS011;2617;51.006;12.436;2023-09-18T06:13:16;7.60;;;5.10;;
5195;SDS011;2617;51.006;12.436;2023-09-18T06:18:18;5.40;;;4.83;;
5195;SDS011;2617;51.006;12.436;2023-09-18T06:23:22;6.38;;;4.90;;
5195;SDS011;2617;51.006;12.436;2023-09-18T06:28:25;6.57;;;5.27;;
5195;SDS011;2617;51.006;12.436;2023-09-18T06:33:27;6.43;;;4.40;;
5195;SDS011;2617;51.006;12.436;2023-09-18T06:38:30;5.10;;;4.60;;
5195;SDS011;2617;51.006;12.436;2023-09-18T06:43:33;4.50;;;4.10;;
5195;SDS011;2617;51.006;12.436;2023-09-18T06:48:35;4.83;;;4.07;;
5195;SDS011;2617;51.006;12.436;2023-09-18T06:53:37;7.63;;;4.53;;
5195;SDS011;2617;51.006;12.436;2023-09-18T06:58:40;15.20;;;3.77;;
5195;SDS011;2617;51.006;12.436;2023-09-18T07:03:42;6.43;;;4.10;;
5195;SDS011;2617;51.006;12.436;2023-09-18T07:08:44;8.30;;;3.73;;
5195;SDS011;2617;51.006;12.436;2023-09-18T07:13:47;4.07;;;3.60;;
5195;SDS011;2617;51.006;12.436;2023-09-18T07:18:49;4.07;;;3.77;;
5195;SDS011;2617;51.006;12.436;2023-09-18T07:23:53;4.72;;;4.03;;
5195;SDS011;2617;51.006;12.436;2023-09-18T07:28:55;4.85;;;3.70;;
5195;SDS011;2617;51.006;12.436;2023-09-18T07:33:58;4.28;;;3.12;;
5195;SDS011;2617;51.006;12.436;2023-09-18T07:39:01;3.10;;;2.80;;
5195;SDS011;2617;51.006;12.436;2023-09-18T07:44:03;5.50;;;2.83;;
5195;SDS011;2617;51.006;12.436;2023-09-18T07:49:07;3.50;;;2.65;;
5195;SDS011;2617;51.006;12.436;2023-09-18T07:54:09;3.10;;;2.77;;
5195;SDS011;2617;51.006;12.436;2023-09-18T07:59:12;2.90;;;2.70;;
5195;SDS011;2617;51.006;12.436;2023-09-18T08:04:15;2.60;;;2.40;;
5195;SDS011;2617;51.006;12.436;2023-09-18T08:09:18;3.30;;;3.00;;
5195;SDS011;2617;51.006;12.436;2023-09-18T08:14:20;2.80;;;2.53;;
5195;SDS011;2617;51.006;12.436;2023-09-18T08:19:24;3.35;;;2.95;;
5195;SDS011;2617;51.006;12.436;2023-09-18T08:24:30;5.43;;;3.47;;
5195;SDS011;2617;51.006;12.436;2023-09-18T08:29:32;3.73;;;2.93;;
5195;SDS011;2617;51.006;12.436;2023-09-18T08:34:35;4.47;;;2.90;;
5195;SDS011;2617;51.006;12.436;2023-09-18T08:39:37;2.70;;;2.15;;
5195;SDS011;2617;51.006;12.436;2023-09-18T08:44:39;4.27;;;2.93;;
5195;SDS011;2617;51.006;12.436;2023-09-18T08:49:42;2.50;;;2.30;;
5195;SDS011;2617;51.006;12.436;2023-09-18T08:54:44;2.93;;;2.50;;
5195;SDS011;2617;51.006;12.436;2023-09-18T08:59:47;2.50;;;2.30;;
5195;SDS011;2617;51.006;12.436;2023-09-18T09:04:49;4.30;;;3.33;;
5195;SDS011;2617;51.006;12.436;2023-09-18T09:09:52;3.30;;;2.93;;
5195;SDS011;2617;51.006;12.436;2023-09-18T09:20:08;3.10;;;2.90;;
5195;SDS011;2617;51.006;12.436;2023-09-18T09:30:30;4.23;;;2.93;;
5195;SDS011;2617;51.006;12.436;2023-09-18T09:35:33;3.63;;;2.70;;
5195;SDS011;2617;51.006;12.436;2023-09-18T09:40:35;4.12;;;2.72;;
5195;SDS011;2617;51.006;12.436;2023-09-18T09:45:37;5.75;;;2.72;;
5195;SDS011;2617;51.006;12.436;2023-09-18T09:50:44;3.00;;;2.70;;
5195;SDS011;2617;51.006;12.436;2023-09-18T09:55:53;5.87;;;2.90;;
5195;SDS011;2617;51.006;12.436;2023-09-18T10:00:51;3.60;;;2.90;;
5195;SDS011;2617;51.006;12.436;2023-09-18T10:05:53;5.93;;;2.93;;
5195;SDS011;2617;51.006;12.436;2023-09-18T10:10:56;3.40;;;3.07;;
5195;SDS011;2617;51.006;12.436;2023-09-18T10:15:58;5.40;;;2.60;;
5195;SDS011;2617;51.006;12.436;2023-09-18T10:21:03;4.63;;;3.00;;
5195;SDS011;2617;51.006;12.436;2023-09-18T10:26:22;3.60;;;3.13;;
5195;SDS011;2617;51.006;12.436;2023-09-18T10:31:23;5.97;;;3.33;;
5195;SDS011;2617;51.006;12.436;2023-09-18T10:36:25;3.78;;;2.90;;
5195;SDS011;2617;51.006;12.436;2023-09-18T10:41:28;6.83;;;3.20;;
5195;SDS011;2617;51.006;12.436;2023-09-18T10:46:30;5.33;;;2.90;;
5195;SDS011;2617;51.006;12.436;2023-09-18T10:51:34;5.17;;;3.10;;
5195;SDS011;2617;51.006;12.436;2023-09-18T10:56:36;6.62;;;3.53;;
5195;SDS011;2617;51.006;12.436;2023-09-18T11:01:38;3.70;;;2.70;;
5195;SDS011;2617;51.006;12.436;2023-09-18T11:12:03;6.20;;;3.05;;
5195;SDS011;2617;51.006;12.436;2023-09-18T11:17:06;4.22;;;2.92;;
5195;SDS011;2617;51.006;12.436;2023-09-18T11:22:09;13.50;;;4.10;;
5195;SDS011;2617;51.006;12.436;2023-09-18T11:27:12;4.53;;;2.92;;
5195;SDS011;2617;51.006;12.436;2023-09-18T11:32:14;3.83;;;2.60;;
5195;SDS011;2617;51.006;12.436;2023-09-18T11:37:19;11.17;;;3.30;;
5195;SDS011;2617;51.006;12.436;2023-09-18T11:42:22;6.10;;;3.20;;
5195;SDS011;2617;51.006;12.436;2023-09-18T11:47:24;4.60;;;3.07;;
5195;SDS011;2617;51.006;12.436;2023-09-18T11:52:27;6.03;;;3.03;;
5195;SDS011;2617;51.006;12.436;2023-09-18T11:57:29;4.50;;;2.83;;
5195;SDS011;2617;51.006;12.436;2023-09-18T12:02:32;6.23;;;3.90;;
5195;SDS011;2617;51.006;12.436;2023-09-18T12:07:37;5.07;;;2.70;;
5195;SDS011;2617;51.006;12.436;2023-09-18T12:12:41;5.00;;;2.97;;
5195;SDS011;2617;51.006;12.436;2023-09-18T12:17:42;4.82;;;2.70;;
5195;SDS011;2617;51.006;12.436;2023-09-18T12:22:47;17.80;;;3.17;;
5195;SDS011;2617;51.006;12.436;2023-09-18T12:27:51;2.40;;;2.17;;
5195;SDS011;2617;51.006;12.436;2023-09-18T12:32:53;2.73;;;2.17;;
5195;SDS011;2617;51.006;12.436;2023-09-18T12:37:58;2.35;;;1.60;;
5195;SDS011;2617;51.006;12.436;2023-09-18T12:42:59;3.77;;;2.07;;
5195;SDS011;2617;51.006;12.436;2023-09-18T12:48:02;5.87;;;2.23;;
5195;SDS011;2617;51.006;12.436;2023-09-18T12:53:06;2.40;;;2.03;;
5195;SDS011;2617;51.006;12.436;2023-09-18T12:58:10;5.63;;;2.40;;
5195;SDS011;2617;51.006;12.436;2023-09-18T13:03:13;6.63;;;1.93;;
5195;SDS011;2617;51.006;12.436;2023-09-18T13:08:15;5.83;;;2.27;;
5195;SDS011;2617;51.006;12.436;2023-09-18T13:13:18;3.17;;;2.20;;
5195;SDS011;2617;51.006;12.436;2023-09-18T13:18:22;7.30;;;2.50;;
5195;SDS011;2617;51.006;12.436;2023-09-18T13:23:28;3.10;;;2.07;;
5195;SDS011;2617;51.006;12.436;2023-09-18T13:28:31;5.10;;;2.07;;
5195;SDS011;2617;51.006;12.436;2023-09-18T13:33:37;10.95;;;3.65;;
5195;SDS011;2617;51.006;12.436;2023-09-18T13:38:42;3.35;;;2.58;;
5195;SDS011;2617;51.006;12.436;2023-09-18T13:43:46;3.20;;;2.17;;
5195;SDS011;2617;51.006;12.436;2023-09-18T13:48:48;2.80;;;2.20;;
5195;SDS011;2617;51.006;12.436;2023-09-18T13:53:50;5.23;;;2.00;;
5195;SDS011;2617;51.006;12.436;2023-09-18T13:58:54;7.70;;;2.70;;
5195;SDS011;2617;51.006;12.436;2023-09-18T14:03:56;11.13;;;3.20;;
5195;SDS011;2617;51.006;12.436;2023-09-18T14:08:59;6.03;;;2.70;;
5195;SDS011;2617;51.006;12.436;2023-09-18T14:14:02;5.12;;;2.37;;
5195;SDS011;2617;51.006;12.436;2023-09-18T14:19:04;4.63;;;2.40;;
5195;SDS011;2617;51.006;12.436;2023-09-18T14:24:07;3.40;;;2.17;;
5195;SDS011;2617;51.006;12.436;2023-09-18T14:29:10;5.20;;;2.57;;
5195;SDS011;2617;51.006;12.436;2023-09-18T14:34:12;3.85;;;2.50;;
5195;SDS011;2617;51.006;12.436;2023-09-18T14:39:16;3.43;;;2.30;;
5195;SDS011;2617;51.006;12.436;2023-09-18T14:44:18;7.67;;;3.07;;
5195;SDS011;2617;51.006;12.436;2023-09-18T14:49:20;3.90;;;2.27;;
5195;SDS011;2617;51.006;12.436;2023-09-18T14:54:23;11.13;;;2.27;;
5195;SDS011;2617;51.006;12.436;2023-09-18T14:59:25;4.80;;;2.07;;
5195;SDS011;2617;51.006;12.436;2023-09-18T15:04:29;4.12;;;1.84;;
5195;SDS011;2617;51.006;12.436;2023-09-18T15:09:32;2.40;;;1.80;;
5195;SDS011;2617;51.006;12.436;2023-09-18T15:14:35;2.13;;;1.47;;
5195;SDS011;2617;51.006;12.436;2023-09-18T15:19:37;2.60;;;1.60;;
5195;SDS011;2617;51.006;12.436;2023-09-18T15:24:39;3.90;;;1.77;;
5195;SDS011;2617;51.006;12.436;2023-09-18T15:29:42;4.07;;;1.85;;
5195;SDS011;2617;51.006;12.436;2023-09-18T15:34:44;1.52;;;1.35;;
5195;SDS011;2617;51.006;12.436;2023-09-18T15:39:47;2.70;;;2.00;;
5195;SDS011;2617;51.006;12.436;2023-09-18T15:44:50;3.13;;;1.73;;
5195;SDS011;2617;51.006;12.436;2023-09-18T15:49:52;3.60;;;2.03;;
5195;SDS011;2617;51.006;12.436;2023-09-18T15:54:55;2.03;;;1.83;;
5195;SDS011;2617;51.006;12.436;2023-09-18T15:59:57;3.20;;;1.50;;
5195;SDS011;2617;51.006;12.436;2023-09-18T16:05:00;4.75;;;1.75;;
5195;SDS011;2617;51.006;12.436;2023-09-18T16:10:03;9.33;;;1.50;;
5195;SDS011;2617;51.006;12.436;2023-09-18T16:15:07;4.70;;;1.60;;
5195;SDS011;2617;51.006;12.436;2023-09-18T16:20:10;2.90;;;1.70;;
5195;SDS011;2617;51.006;12.436;2023-09-18T16:25:13;6.07;;;1.80;;
5195;SDS011;2617;51.006;12.436;2023-09-18T16:30:15;3.77;;;1.47;;
5195;SDS011;2617;51.006;12.436;2023-09-18T16:35:17;3.87;;;1.62;;
5195;SDS011;2617;51.006;12.436;2023-09-18T16:40:20;13.40;;;1.53;;
5195;SDS011;2617;51.006;12.436;2023-09-18T16:45:23;1.70;;;1.47;;
5195;SDS011;2617;51.006;12.436;2023-09-18T16:50:25;3.00;;;1.40;;
5195;SDS011;2617;51.006;12.436;2023-09-18T16:55:28;1.80;;;1.57;;
5195;SDS011;2617;51.006;12.436;2023-09-18T17:00:31;3.85;;;1.60;;
5195;SDS011;2617;51.006;12.436;2023-09-18T17:05:34;4.53;;;1.83;;
5195;SDS011;2617;51.006;12.436;2023-09-18T17:10:36;4.17;;;1.40;;
5195;SDS011;2617;51.006;12.436;2023-09-18T17:15:38;5.00;;;1.63;;
5195;SDS011;2617;51.006;12.436;2023-09-18T17:20:41;3.20;;;1.67;;
5195;SDS011;2617;51.006;12.436;2023-09-18T17:25:43;3.57;;;1.60;;
5195;SDS011;2617;51.006;12.436;2023-09-18T17:30:46;4.07;;;1.62;;
5195;SDS011;2617;51.006;12.436;2023-09-18T17:35:48;1.50;;;1.00;;
5195;SDS011;2617;51.006;12.436;2023-09-18T17:40:50;7.03;;;1.40;;
5195;SDS011;2617;51.006;12.436;2023-09-18T17:45:53;1.30;;;1.10;;
5195;SDS011;2617;51.006;12.436;2023-09-18T17:50:55;4.67;;;2.17;;
5195;SDS011;2617;51.006;12.436;2023-09-18T17:55:58;1.50;;;1.40;;
5195;SDS011;2617;51.006;12.436;2023-09-18T18:01:02;4.30;;;1.20;;
5195;SDS011;2617;51.006;12.436;2023-09-18T18:06:07;2.87;;;1.70;;
5195;SDS011;2617;51.006;12.436;2023-09-18T18:11:09;3.57;;;1.83;;
5195;SDS011;2617;51.006;12.436;2023-09-18T18:16:13;2.13;;;1.60;;
5195;SDS011;2617;51.006;12.436;2023-09-18T18:21:16;2.90;;;1.30;;
5195;SDS011;2617;51.006;12.436;2023-09-18T18:26:19;3.28;;;1.65;;
5195;SDS011;2617;51.006;12.436;2023-09-18T18:31:21;3.50;;;1.30;;
5195;SDS011;2617;51.006;12.436;2023-09-18T18:36:24;1.50;;;1.20;;
5195;SDS011;2617;51.006;12.436;2023-09-18T18:41:26;5.20;;;2.40;;
5195;SDS011;2617;51.006;12.436;2023-09-18T18:46:28;2.37;;;1.37;;
5195;SDS011;2617;51.006;12.436;2023-09-18T18:51:32;2.67;;;1.27;;
5195;SDS011;2617;51.006;12.436;2023-09-18T18:56:34;3.77;;;1.80;;
5195;SDS011;2617;51.006;12.436;2023-09-18T19:01:37;2.12;;;1.76;;
5195;SDS011;2617;51.006;12.436;2023-09-18T19:06:39;3.73;;;1.30;;
5195;SDS011;2617;51.006;12.436;2023-09-18T19:11:42;1.47;;;1.20;;
5195;SDS011;2617;51.006;12.436;2023-09-18T19:16:45;1.43;;;1.33;;
5195;SDS011;2617;51.006;12.436;2023-09-18T19:21:47;4.60;;;1.47;;
5195;SDS011;2617;51.006;12.436;2023-09-18T19:26:50;1.17;;;1.07;;
5195;SDS011;2617;51.006;12.436;2023-09-18T19:31:52;2.53;;;1.63;;
5195;SDS011;2617;51.006;12.436;2023-09-18T19:36:55;3.00;;;1.30;;
5195;SDS011;2617;51.006;12.436;2023-09-18T19:41:57;5.60;;;1.40;;
5195;SDS011;2617;51.006;12.436;2023-09-18T19:46:59;1.20;;;1.10;;
5195;SDS011;2617;51.006;12.436;2023-09-18T19:52:03;2.00;;;1.35;;
5195;SDS011;2617;51.006;12.436;2023-09-18T19:57:06;5.30;;;1.27;;
5195;SDS011;2617;51.006;12.436;2023-09-18T20:02:08;1.70;;;1.33;;
5195;SDS011;2617;51.006;12.436;2023-09-18T20:07:11;1.67;;;1.40;;
5195;SDS011;2617;51.006;12.436;2023-09-18T20:12:13;2.30;;;1.33;;
5195;SDS011;2617;51.006;12.436;2023-09-18T20:17:16;1.83;;;1.73;;
5195;SDS011;2617;51.006;12.436;2023-09-18T20:22:18;3.10;;;1.27;;
5195;SDS011;2617;51.006;12.436;2023-09-18T20:27:20;5.20;;;1.80;;
5195;SDS011;2617;51.006;12.436;2023-09-18T20:32:23;3.43;;;1.57;;
5195;SDS011;2617;51.006;12.436;2023-09-18T20:37:25;2.40;;;1.30;;
5195;SDS011;2617;51.006;12.436;2023-09-18T20:42:27;1.33;;;1.10;;
5195;SDS011;2617;51.006;12.436;2023-09-18T20:47:30;3.47;;;1.23;;
5195;SDS011;2617;51.006;12.436;2023-09-18T20:52:33;1.37;;;1.20;;
5195;SDS011;2617;51.006;12.436;2023-09-18T20:57:37;3.20;;;1.30;;
5195;SDS011;2617;51.006;12.436;2023-09-18T21:02:39;1.73;;;1.10;;
5195;SDS011;2617;51.006;12.436;2023-09-18T21:07:42;4.93;;;1.20;;
5195;SDS011;2617;51.006;12.436;2023-09-18T21:12:44;1.13;;;1.00;;
5195;SDS011;2617;51.006;12.436;2023-09-18T21:17:47;1.07;;;1.03;;
5195;SDS011;2617;51.006;12.436;2023-09-18T21:22:49;1.33;;;1.23;;
5195;SDS011;2617;51.006;12.436;2023-09-18T21:27:52;2.40;;;1.10;;
5195;SDS011;2617;51.006;12.436;2023-09-18T21:32:55;1.07;;;1.03;;
5195;SDS011;2617;51.006;12.436;2023-09-18T21:37:57;1.20;;;1.00;;
5195;SDS011;2617;51.006;12.436;2023-09-18T21:42:59;1.40;;;1.30;;
5195;SDS011;2617;51.006;12.436;2023-09-18T21:48:03;1.33;;;1.00;;
5195;SDS011;2617;51.006;12.436;2023-09-18T21:53:06;4.23;;;1.40;;
5195;SDS011;2617;51.006;12.436;2023-09-18T21:58:08;2.70;;;1.75;;
5195;SDS011;2617;51.006;12.436;2023-09-18T22:03:11;1.60;;;1.50;;
5195;SDS011;2617;51.006;12.436;2023-09-18T22:08:13;3.87;;;0.90;;
5195;SDS011;2617;51.006;12.436;2023-09-18T22:13:15;4.57;;;1.33;;
5195;SDS011;2617;51.006;12.436;2023-09-18T22:18:18;1.27;;;1.27;;
5195;SDS011;2617;51.006;12.436;2023-09-18T22:23:20;1.60;;;1.50;;
5195;SDS011;2617;51.006;12.436;2023-09-18T22:28:24;1.67;;;1.57;;
5195;SDS011;2617;51.006;12.436;2023-09-18T22:33:27;2.17;;;1.20;;
5195;SDS011;2617;51.006;12.436;2023-09-18T22:38:33;1.80;;;1.70;;
5195;SDS011;2617;51.006;12.436;2023-09-18T22:59:17;2.13;;;1.70;;
5195;SDS011;2617;51.006;12.436;2023-09-18T23:04:19;2.45;;;1.80;;
5195;SDS011;2617;51.006;12.436;2023-09-18T23:09:21;8.13;;;1.87;;
5195;SDS011;2617;51.006;12.436;2023-09-18T23:14:24;2.10;;;1.77;;
5195;SDS011;2617;51.006;12.436;2023-09-18T23:19:27;3.72;;;1.70;;
5195;SDS011;2617;51.006;12.436;2023-09-18T23:24:29;3.07;;;1.33;;
5195;SDS011;2617;51.006;12.436;2023-09-18T23:29:32;2.17;;;1.97;;
5195;SDS011;2617;51.006;12.436;2023-09-18T23:34:34;2.03;;;1.80;;
5195;SDS011;2617;51.006;12.436;2023-09-18T23:39:37;2.23;;;2.00;;
5195;SDS011;2617;51.006;12.436;2023-09-18T23:44:40;7.03;;;1.70;;
5195;SDS011;2617;51.006;12.436;2023-09-18T23:49:42;2.10;;;1.90;;
5195;SDS011;2617;51.006;12.436;2023-09-18T23:54:46;2.55;;;1.92;;
5195;SDS011;2617;51.006;12.436;2023-09-18T23:59:48;1.73;;;1.63;;
